Time;durP1;ratioP1;P1;durP2;ratioP2;P2;SDS_P1;SDS_P2;PMS_P1;PMS_P2;Temp;Humidity;BMP_temperature;BMP_pressure;BME280_temperature;BME280_humidity;BME280_pressure;Samples;Min_cycle;Max_cycle;Signal;HPM_P1;HPM_P2
2022/10/31 00:01:00;;;;;;;3.80;2.02;;;;;;;10.06;85.39;99401.47;1717063;81;21076;-76
2022/10/31 00:03:27;;;;;;;4.78;2.20;;;;;;;10.05;85.53;99403.05;1697829;83;21082;-75
2022/10/31 00:05:55;;;;;;;2.65;2.33;;;;;;;10.03;85.67;99407.86;1706242;83;21064;-75
2022/10/31 00:08:22;;;;;;;3.85;2.30;;;;;;;10.01;85.80;99406.78;1702766;83;21141;-75
2022/10/31 00:10:50;;;;;;;6.47;2.45;;;;;;;10.00;85.82;99398.44;1700310;82;20967;-76
2022/10/31 00:13:17;;;;;;;4.78;2.25;;;;;;;9.98;85.96;99399.21;1714592;83;20949;-74
2022/10/31 00:15:45;;;;;;;3.00;1.55;;;;;;;9.96;86.16;99412.10;1697642;83;21094;-75
2022/10/31 00:18:13;;;;;;;6.08;2.35;;;;;;;9.94;86.39;99399.44;1714225;82;20983;-69
2022/10/31 00:20:40;;;;;;;2.50;1.92;;;;;;;9.94;86.46;99412.88;1681063;84;21206;-71
2022/10/31 00:23:06;;;;;;;3.02;1.92;;;;;;;9.93;86.47;99400.50;1706428;82;21035;-69
2022/10/31 00:25:36;;;;;;;6.40;2.45;;;;;;;9.92;86.57;99407.48;1678772;83;20948;-71
2022/10/31 00:28:06;;;;;;;5.42;1.70;;;;;;;9.91;86.69;99393.24;1706474;82;20984;-72
2022/10/31 00:30:34;;;;;;;4.05;1.92;;;;;;;9.90;86.82;99411.76;1721235;81;21074;-74
2022/10/31 00:33:05;;;;;;;3.80;2.02;;;;;;;9.89;87.07;99422.22;1699276;81;22436;-75
2022/10/31 00:35:33;;;;;;;5.47;2.37;;;;;;;9.89;87.13;99396.70;1693589;83;21038;-75
2022/10/31 00:38:01;;;;;;;5.70;2.72;;;;;;;9.89;87.27;99393.20;1714932;83;20984;-78
2022/10/31 00:40:29;;;;;;;4.45;1.75;;;;;;;9.87;87.36;99398.03;1670941;84;20990;-73
2022/10/31 00:42:56;;;;;;;4.87;1.90;;;;;;;9.86;87.36;99381.63;1692013;82;21001;-73
2022/10/31 00:45:24;;;;;;;6.55;2.50;;;;;;;9.84;87.57;99391.27;1687193;84;22271;-71
2022/10/31 00:47:51;;;;;;;5.50;2.20;;;;;;;9.84;87.62;99383.21;1708730;82;21584;-72
2022/10/31 00:50:19;;;;;;;3.50;1.80;;;;;;;9.84;87.62;99378.38;1714185;81;21019;-73
2022/10/31 00:52:47;;;;;;;4.03;2.17;;;;;;;9.83;87.70;99378.90;1703393;83;21110;-72
2022/10/31 00:55:14;;;;;;;4.08;2.42;;;;;;;9.84;87.70;99385.09;1730036;81;21026;-73
2022/10/31 00:57:40;;;;;;;2.85;1.92;;;;;;;9.82;87.79;99375.14;1699701;83;21975;-73
2022/10/31 01:00:09;;;;;;;3.75;2.10;;;;;;;9.80;87.79;99364.64;1678427;83;21594;-73
2022/10/31 01:02:36;;;;;;;5.20;2.47;;;;;;;9.78;87.94;99366.79;1712751;82;21015;-74
2022/10/31 01:05:04;;;;;;;7.92;2.00;;;;;;;9.75;88.13;99384.73;1701692;83;21084;-84
2022/10/31 01:07:31;;;;;;;7.85;2.12;;;;;;;9.76;88.20;99381.52;1747785;81;21079;-82
2022/10/31 01:09:59;;;;;;;4.05;1.95;;;;;;;9.74;88.31;99376.39;1733714;81;21316;-78
2022/10/31 01:12:27;;;;;;;4.37;2.30;;;;;;;9.71;88.41;99380.93;1748021;81;21543;-78
2022/10/31 01:14:55;;;;;;;7.85;2.45;;;;;;;9.68;88.66;99380.09;1738426;80;21054;-80
2022/10/31 01:17:22;;;;;;;5.00;2.40;;;;;;;9.65;88.83;99387.30;1732702;81;21026;-77
2022/10/31 01:19:48;;;;;;;5.08;1.98;;;;;;;9.61;89.09;99368.20;1743461;81;21039;-76
2022/10/31 01:22:15;;;;;;;7.30;2.45;;;;;;;9.61;89.09;99380.81;1760361;80;21420;-72
2022/10/31 01:24:41;;;;;;;4.12;2.35;;;;;;;9.59;89.27;99385.08;1739640;81;21012;-70
2022/10/31 01:27:08;;;;;;;4.70;2.52;;;;;;;9.59;89.29;99382.39;1731520;80;20952;-70
2022/10/31 01:29:35;;;;;;;6.53;2.05;;;;;;;9.58;89.38;99382.14;1744362;81;21004;-69
2022/10/31 01:32:04;;;;;;;7.92;2.60;;;;;;;9.55;89.47;99392.02;1725267;81;21004;-70
2022/10/31 01:34:31;;;;;;;7.15;1.80;;;;;;;9.54;89.62;99399.00;1756339;81;21064;-70
2022/10/31 01:36:59;;;;;;;6.78;2.17;;;;;;;9.55;89.62;99385.30;1750300;80;20921;-71
2022/10/31 01:39:26;;;;;;;3.62;2.02;;;;;;;9.54;89.65;99378.86;1760440;80;21083;-71
2022/10/31 01:41:54;;;;;;;5.35;2.20;;;;;;;9.53;89.68;99383.42;1762140;80;21040;-70
2022/10/31 01:44:26;;;;;;;7.17;2.40;;;;;;;9.54;89.65;99386.92;1762560;80;22269;-73
2022/10/31 01:47:17;;;;;;;3.97;2.33;;;;;;;9.52;89.60;99380.45;1757945;80;21187;-72
2022/10/31 01:49:50;;;;;;;4.35;2.10;;;;;;;9.53;89.68;99396.02;1745863;81;21700;-69
2022/10/31 01:52:47;;;;;;;8.55;2.35;;;;;;;9.52;89.67;99389.02;1759364;81;20976;-72
2022/10/31 01:55:27;;;;;;;4.65;2.50;;;;;;;9.52;89.66;99395.73;1650392;86;21528;-70
2022/10/31 01:57:55;;;;;;;4.58;2.35;;;;;;;9.51;89.60;99390.08;1660378;85;21511;-76
2022/10/31 02:00:22;;;;;;;5.45;2.25;;;;;;;9.52;89.56;99394.39;1661668;85;21206;-77
2022/10/31 02:02:51;;;;;;;9.73;2.37;;;;;;;9.51;89.57;99394.11;1634804;87;20941;-77
2022/10/31 02:05:21;;;;;;;4.47;2.40;;;;;;;9.53;89.54;99390.66;1656970;85;21028;-74
2022/10/31 02:07:56;;;;;;;6.25;2.25;;;;;;;9.53;89.51;99412.13;1663420;85;21007;-71
2022/10/31 02:10:25;;;;;;;6.40;2.65;;;;;;;9.55;89.34;99394.70;1681180;85;21047;-75
2022/10/31 02:12:55;;;;;;;9.53;2.58;;;;;;;9.57;89.18;99391.25;1634305;86;21885;-72
2022/10/31 02:15:23;;;;;;;4.33;2.47;;;;;;;9.57;89.03;99411.38;1626584;87;21074;-72
2022/10/31 02:17:51;;;;;;;7.03;2.72;;;;;;;9.61;88.96;99419.21;1627134;87;21042;-73
2022/10/31 02:20:21;;;;;;;3.87;2.15;;;;;;;9.63;88.86;99409.58;1632667;86;21103;-79
2022/10/31 02:23:14;;;;;;;8.68;2.22;;;;;;;9.64;88.75;99437.50;1610770;85;21067;-77
2022/10/31 02:26:10;;;;;;;4.10;1.82;;;;;;;9.67;88.60;99411.22;1680798;84;22569;-76
2022/10/31 02:29:06;;;;;;;5.40;2.70;;;;;;;9.70;88.29;99425.48;1663346;86;21035;-74
2022/10/31 02:31:47;;;;;;;7.70;2.20;;;;;;;9.71;88.08;99422.55;1659065;86;21489;-72
2022/10/31 02:34:21;;;;;;;9.80;1.92;;;;;;;9.72;87.94;99457.75;1635000;86;21046;-72
2022/10/31 02:37:13;;;;;;;2.62;2.37;;;;;;;9.72;87.79;99442.98;1656087;85;21071;-72
2022/10/31 02:39:51;;;;;;;4.70;2.70;;;;;;;9.73;87.63;99439.23;1667599;85;21176;-71
2022/10/31 02:42:28;;;;;;;9.13;2.67;;;;;;;9.75;87.37;99457.77;1650578;86;21050;-71
2022/10/31 02:45:08;;;;;;;3.92;2.17;;;;;;;9.75;87.16;99443.00;1671328;85;20969;-72
2022/10/31 02:47:37;;;;;;;2.87;1.98;;;;;;;9.73;87.05;99454.01;1677623;85;21009;-72
2022/10/31 02:50:10;;;;;;;4.85;2.00;;;;;;;9.75;86.98;99485.97;1672087;85;21058;-72
2022/10/31 02:52:39;;;;;;;10.80;2.27;;;;;;;9.76;86.87;99457.53;1624400;86;21156;-73
2022/10/31 02:55:12;;;;;;;10.98;3.42;;;;;;;9.78;86.67;99470.72;1652694;86;21062;-73
2022/10/31 02:57:40;;;;;;;5.72;2.40;;;;;;;9.80;86.64;99457.30;1657417;85;21094;-71
2022/10/31 03:00:08;;;;;;;6.62;1.80;;;;;;;9.82;86.48;99467.80;1654490;86;21604;-72
2022/10/31 03:03:00;;;;;;;3.40;1.98;;;;;;;9.83;86.36;99475.59;1662519;85;21568;-69
2022/10/31 03:06:02;;;;;;;4.20;2.12;;;;;;;9.82;86.12;99482.05;1660109;85;21920;-74
2022/10/31 03:08:49;;;;;;;3.22;1.62;;;;;;;9.83;86.00;99477.49;1643559;86;21048;-76
2022/10/31 03:11:16;;;;;;;3.25;2.05;;;;;;;9.85;85.63;99486.09;1649300;86;21030;-74
2022/10/31 03:13:51;;;;;;;4.33;1.67;;;;;;;9.86;84.94;99516.75;1651929;85;21057;-74
2022/10/31 03:16:42;;;;;;;4.55;2.27;;;;;;;9.85;83.19;99503.55;1647902;85;21532;-74
2022/10/31 03:19:12;;;;;;;7.42;2.02;;;;;;;9.85;82.46;99506.23;1663989;85;21481;-73
2022/10/31 03:22:04;;;;;;;1.55;1.25;;;;;;;9.79;77.82;99520.13;1651897;86;20997;-73
2022/10/31 03:24:35;;;;;;;3.77;1.32;;;;;;;9.66;71.48;99535.27;1651907;85;21085;-72
2022/10/31 03:27:02;;;;;;;2.87;1.30;;;;;;;9.53;65.59;99543.68;1643262;86;21065;-73
2022/10/31 03:29:33;;;;;;;1.10;1.00;;;;;;;9.42;63.46;99571.42;1638572;86;21078;-72
2022/10/31 03:32:11;;;;;;;2.47;1.30;;;;;;;9.32;61.84;99542.55;1624333;87;21148;-73
2022/10/31 03:34:40;;;;;;;1.52;1.20;;;;;;;9.15;60.69;99545.26;1632234;85;22682;-73
2022/10/31 03:37:09;;;;;;;3.45;1.20;;;;;;;9.05;60.65;99555.00;1667853;85;21109;-72
2022/10/31 03:39:37;;;;;;;5.30;1.75;;;;;;;8.98;61.33;99538.23;1651996;85;21556;-72
2022/10/31 03:42:08;;;;;;;4.55;1.67;;;;;;;8.91;61.51;99544.30;1664272;85;21499;-72
2022/10/31 03:44:35;;;;;;;2.12;1.52;;;;;;;8.87;62.03;99560.60;1678686;84;21217;-72
2022/10/31 03:47:03;;;;;;;2.05;1.30;;;;;;;8.78;61.95;99560.16;1626300;87;20951;-72
2022/10/31 03:49:34;;;;;;;2.35;1.20;;;;;;;8.73;62.43;99557.38;1658617;85;21041;-72
2022/10/31 03:52:35;;;;;;;1.37;1.20;;;;;;;8.65;62.75;99561.28;1660901;85;21018;-73
2022/10/31 03:55:16;;;;;;;1.67;1.12;;;;;;;8.57;63.13;99562.20;1645458;86;21055;-70
2022/10/31 03:57:51;;;;;;;2.67;1.45;;;;;;;8.53;63.61;99571.78;1646991;85;21607;-72
2022/10/31 04:00:18;;;;;;;5.10;1.42;;;;;;;8.40;63.94;99580.08;1668139;85;20982;-72
2022/10/31 04:03:00;;;;;;;2.15;1.60;;;;;;;8.35;64.50;99583.99;1669808;85;21341;-72
2022/10/31 04:05:27;;;;;;;1.72;1.55;;;;;;;8.33;64.81;99590.95;1636604;85;21569;-71
2022/10/31 04:07:55;;;;;;;1.40;1.30;;;;;;;8.27;65.15;99582.48;1653298;85;22511;-71
2022/10/31 04:10:23;;;;;;;2.12;1.35;;;;;;;8.23;65.56;99598.75;1667193;85;20982;-71
2022/10/31 04:12:57;;;;;;;2.17;0.98;;;;;;;8.19;65.99;99603.77;1638662;86;21720;-71
2022/10/31 04:15:26;;;;;;;1.32;1.22;;;;;;;8.15;66.36;99603.92;1662392;85;21499;-71
2022/10/31 04:17:55;;;;;;;1.98;1.60;;;;;;;8.09;66.83;99604.08;1636265;86;21138;-74
2022/10/31 04:20:37;;;;;;;3.77;1.37;;;;;;;8.06;67.12;99593.81;1628143;87;21097;-74
2022/10/31 04:23:05;;;;;;;3.15;1.47;;;;;;;8.02;67.26;99600.17;1617762;87;21253;-73
2022/10/31 04:25:32;;;;;;;2.37;1.30;;;;;;;7.99;67.21;99605.19;1640982;85;21046;-74
2022/10/31 04:27:59;;;;;;;1.17;1.10;;;;;;;7.94;67.13;99626.50;1643950;87;20966;-73
2022/10/31 04:30:27;;;;;;;0.80;0.80;;;;;;;7.87;66.99;99615.38;1643807;87;22200;-73
2022/10/31 04:32:54;;;;;;;2.12;1.10;;;;;;;7.87;67.12;99614.05;1655536;85;21074;-74
2022/10/31 04:35:21;;;;;;;1.27;1.17;;;;;;;7.85;67.00;99620.17;1642241;86;21459;-74
2022/10/31 04:37:47;;;;;;;2.40;1.05;;;;;;;7.82;66.56;99628.66;1637627;87;21094;-73
2022/10/31 04:40:14;;;;;;;2.35;2.15;;;;;;;7.82;66.69;99614.45;1667227;85;21117;-73
2022/10/31 04:43:01;;;;;;;1.65;1.17;;;;;;;7.80;66.19;99624.07;1646417;85;20956;-72
2022/10/31 04:45:28;;;;;;;3.08;1.87;;;;;;;7.77;66.08;99624.52;1601443;88;21024;-72
2022/10/31 04:47:56;;;;;;;1.35;1.20;;;;;;;7.75;66.16;99622.62;1621511;87;21147;-74
2022/10/31 04:50:23;;;;;;;3.20;1.50;;;;;;;7.71;65.85;99638.86;1657218;85;21508;-73
2022/10/31 04:52:50;;;;;;;1.40;1.30;;;;;;;7.69;65.93;99638.27;1647693;85;21558;-72
2022/10/31 04:55:18;;;;;;;2.08;1.50;;;;;;;7.60;65.80;99659.73;1648401;85;21078;-72
2022/10/31 04:57:56;;;;;;;1.92;1.65;;;;;;;7.58;65.95;99647.09;1651658;84;21042;-73
2022/10/31 05:00:24;;;;;;;6.22;1.90;;;;;;;7.56;66.01;99651.06;1655326;84;21166;-72
2022/10/31 05:02:56;;;;;;;3.27;1.80;;;;;;;7.53;66.20;99672.94;1671212;85;20916;-72
2022/10/31 05:05:26;;;;;;;1.05;1.00;;;;;;;7.49;65.96;99674.42;1657106;86;21045;-72
2022/10/31 05:07:53;;;;;;;1.27;1.10;;;;;;;7.45;65.44;99670.88;1627358;86;21039;-73
2022/10/31 05:10:24;;;;;;;1.10;1.10;;;;;;;7.43;65.21;99676.97;1644334;86;21640;-73
2022/10/31 05:12:58;;;;;;;3.80;1.17;;;;;;;7.41;64.59;99683.09;1641181;86;21121;-72
2022/10/31 05:15:33;;;;;;;1.60;1.45;;;;;;;7.37;64.11;99687.27;1650459;86;21028;-72
2022/10/31 05:18:17;;;;;;;2.00;1.10;;;;;;;7.36;63.97;99707.03;1605000;87;25048;-74
2022/10/31 05:21:02;;;;;;;3.10;1.17;;;;;;;7.34;63.54;99706.44;1600916;88;21023;-73
2022/10/31 05:23:38;;;;;;;2.05;1.17;;;;;;;7.29;63.42;99718.89;1623604;88;21095;-71
2022/10/31 05:26:07;;;;;;;1.12;1.02;;;;;;;7.23;63.33;99701.89;1651200;86;22219;-72
2022/10/31 05:28:35;;;;;;;3.77;1.65;;;;;;;7.23;63.50;99709.09;1651076;86;21057;-73
2022/10/31 05:31:03;;;;;;;2.50;1.70;;;;;;;7.18;63.58;99719.13;1699465;84;21067;-73
2022/10/31 05:33:31;;;;;;;3.55;1.27;;;;;;;7.16;63.62;99733.24;1656126;85;21066;-74
2022/10/31 05:36:18;;;;;;;1.75;1.20;;;;;;;7.14;63.60;99735.86;1652401;86;21548;-74
2022/10/31 05:38:52;;;;;;;1.10;1.10;;;;;;;7.12;63.54;99756.66;1663060;85;21155;-74
2022/10/31 05:41:23;;;;;;;1.55;1.45;;;;;;;7.10;63.37;99748.06;1651300;86;21497;-73
2022/10/31 05:43:50;;;;;;;1.90;1.30;;;;;;;7.07;63.02;99757.85;1675017;85;21499;-73
2022/10/31 05:46:18;;;;;;;1.20;1.10;;;;;;;7.05;63.00;99760.73;1658206;85;21015;-74
2022/10/31 05:49:03;;;;;;;1.47;1.10;;;;;;;7.05;62.98;99757.28;1699032;84;21084;-74
2022/10/31 05:51:49;;;;;;;1.27;1.17;;;;;;;7.02;62.96;99763.88;1671140;85;21002;-73
2022/10/31 05:54:15;;;;;;;0.98;0.95;;;;;;;7.03;62.55;99783.41;1655449;85;21097;-75
2022/10/31 05:56:44;;;;;;;3.70;1.45;;;;;;;7.01;62.37;99791.65;1651559;85;21543;-74
2022/10/31 05:59:10;;;;;;;20.88;2.25;;;;;;;6.97;61.14;99792.63;1700140;84;21607;-73
2022/10/31 06:01:37;;;;;;;3.92;1.52;;;;;;;6.97;60.56;99797.16;1694651;84;21158;-73
2022/10/31 06:04:06;;;;;;;2.12;1.30;;;;;;;6.94;59.39;99789.59;1701079;84;21529;-72
2022/10/31 06:06:34;;;;;;;1.47;1.32;;;;;;;6.94;59.66;99802.45;1699484;84;21023;-76
2022/10/31 06:09:00;;;;;;;2.05;1.52;;;;;;;6.93;58.83;99824.05;1655166;85;21125;-76
2022/10/31 06:11:28;;;;;;;3.87;1.50;;;;;;;6.94;58.39;99816.33;1629486;86;21512;-74
2022/10/31 06:14:05;;;;;;;1.67;1.57;;;;;;;6.94;58.14;99818.48;1686272;84;21016;-74
2022/10/31 06:16:49;;;;;;;5.37;1.30;;;;;;;6.96;58.39;99826.27;1660539;85;21420;-75
2022/10/31 06:19:20;;;;;;;2.33;1.67;;;;;;;6.98;58.26;99829.55;1662098;84;21021;-75
2022/10/31 06:21:47;;;;;;;2.22;1.65;;;;;;;6.98;57.83;99837.05;1655908;85;21063;-76
2022/10/31 06:24:15;;;;;;;1.30;1.20;;;;;;;7.00;57.55;99839.51;1652117;85;21018;-76
2022/10/31 06:26:52;;;;;;;2.75;1.32;;;;;;;6.95;57.07;99858.86;1650747;85;21549;-74
2022/10/31 06:29:19;;;;;;;2.00;1.77;;;;;;;6.95;57.01;99845.50;1652092;85;21533;-74
2022/10/31 06:31:53;;;;;;;2.00;1.40;;;;;;;6.98;57.53;99838.90;1653885;84;21022;-74
2022/10/31 06:34:20;;;;;;;4.62;1.30;;;;;;;7.01;57.68;99847.28;1664288;85;21091;-76
2022/10/31 06:36:47;;;;;;;1.20;1.10;;;;;;;7.05;57.61;99848.20;1650454;86;21006;-75
2022/10/31 06:39:15;;;;;;;4.30;1.77;;;;;;;7.07;57.42;99851.45;1650547;87;21015;-75
2022/10/31 06:41:43;;;;;;;1.85;1.20;;;;;;;7.09;57.27;99858.74;1654868;85;21256;-74
2022/10/31 06:44:10;;;;;;;1.30;1.20;;;;;;;7.08;56.37;99860.59;1660700;85;21077;-73
2022/10/31 06:46:47;;;;;;;1.30;1.10;;;;;;;7.09;56.47;99858.22;1623778;86;21540;-73
2022/10/31 06:49:28;;;;;;;1.45;1.35;;;;;;;7.09;56.59;99858.74;1647465;84;21525;-75
2022/10/31 06:51:56;;;;;;;1.20;1.10;;;;;;;7.10;56.43;99903.17;1671810;84;21095;-72
2022/10/31 06:54:23;;;;;;;1.65;1.40;;;;;;;7.10;55.71;99877.22;1674105;85;21695;-74
2022/10/31 06:56:50;;;;;;;1.80;0.93;;;;;;;7.10;54.76;99883.11;1676316;84;21154;-72
2022/10/31 06:59:17;;;;;;;0.82;0.82;;;;;;;7.08;54.77;99896.70;1677118;84;21545;-74
2022/10/31 07:01:58;;;;;;;2.27;0.95;;;;;;;7.06;54.04;99884.58;1598543;86;20926;-74
2022/10/31 07:04:25;;;;;;;1.55;0.98;;;;;;;7.06;54.23;99889.92;1667622;85;21551;-73
2022/10/31 07:06:52;;;;;;;1.57;1.00;;;;;;;7.08;54.46;99861.11;1678621;85;22077;-75
2022/10/31 07:09:19;;;;;;;0.95;0.90;;;;;;;7.08;54.51;99884.66;1641705;87;21581;-76
2022/10/31 07:11:46;;;;;;;1.70;0.98;;;;;;;7.11;54.19;99880.20;1665751;84;21032;-76
2022/10/31 07:14:15;;;;;;;1.37;1.27;;;;;;;7.12;53.71;99897.06;1678252;84;21052;-76
2022/10/31 07:16:42;;;;;;;1.00;1.00;;;;;;;7.09;52.58;99893.51;1689247;84;21027;-75
2022/10/31 07:19:10;;;;;;;1.22;1.12;;;;;;;7.11;52.63;99887.40;1680550;85;21205;-73
2022/10/31 07:21:38;;;;;;;1.30;0.90;;;;;;;7.07;51.45;99859.47;1670102;84;21576;-73
2022/10/31 07:24:05;;;;;;;1.12;1.02;;;;;;;7.10;51.59;99887.91;1650219;85;21596;-73
2022/10/31 07:26:47;;;;;;;1.40;1.30;;;;;;;7.10;51.64;99884.45;1623225;87;21008;-75
2022/10/31 07:29:13;;;;;;;1.40;1.30;;;;;;;7.11;51.72;99895.42;1632651;85;21050;-74
2022/10/31 07:31:41;;;;;;;1.35;1.00;;;;;;;7.13;51.51;99918.25;1655995;85;21782;-76
2022/10/31 07:34:09;;;;;;;3.92;1.10;;;;;;;7.17;50.67;99908.73;1648625;85;21007;-73
2022/10/31 07:36:54;;;;;;;2.17;1.05;;;;;;;7.19;50.08;99893.30;1621713;88;21090;-76
2022/10/31 07:39:22;;;;;;;0.95;0.88;;;;;;;7.23;50.05;99900.34;1642262;85;21101;-77
2022/10/31 07:41:49;;;;;;;1.87;1.12;;;;;;;7.24;50.33;99908.13;1631271;86;21074;-77
2022/10/31 07:44:18;;;;;;;1.22;1.12;;;;;;;7.25;50.49;99915.12;1676530;84;30022;-75
2022/10/31 07:46:51;;;;;;;;;;;;;;;7.27;50.66;99897.52;1673751;83;21079;-75
2022/10/31 07:49:36;;;;;;;0.80;0.80;;;;;;;7.29;51.23;99890.89;1717793;83;20971;-72
2022/10/31 07:52:21;;;;;;;0.90;0.90;;;;;;;7.37;51.05;99905.84;1655340;85;21512;-75
2022/10/31 07:55:07;;;;;;;0.80;0.80;;;;;;;7.41;50.53;99897.14;1699718;82;21230;-76
2022/10/31 07:57:36;;;;;;;1.62;1.00;;;;;;;7.45;50.50;99905.02;1698498;83;21587;-76
2022/10/31 08:00:09;;;;;;;2.65;1.37;;;;;;;7.49;50.10;99898.69;1705949;83;21049;-78
2022/10/31 08:02:39;;;;;;;1.00;1.00;;;;;;;7.52;50.23;99923.69;1701302;82;21034;-76
2022/10/31 08:05:26;;;;;;;1.05;1.00;;;;;;;7.58;50.08;99959.44;1701640;82;21519;-74
2022/10/31 08:08:01;;;;;;;6.37;2.67;;;;;;;7.59;49.63;99915.03;1706632;82;21059;-75
2022/10/31 08:10:30;;;;;;;2.87;1.10;;;;;;;7.59;49.43;99918.23;1691807;82;22508;-74
2022/10/31 08:13:02;;;;;;;1.70;1.10;;;;;;;7.59;49.26;99902.17;1705235;82;21548;-74
2022/10/31 08:15:30;;;;;;;1.70;0.95;;;;;;;7.61;49.22;99914.30;1699337;84;21029;-74
2022/10/31 08:17:59;;;;;;;1.80;0.80;;;;;;;7.62;48.89;99903.08;1698524;84;21226;-74
2022/10/31 08:20:25;;;;;;;2.33;1.07;;;;;;;7.63;49.21;99890.78;1709680;82;21468;-75
2022/10/31 08:23:00;;;;;;;3.60;1.20;;;;;;;7.67;49.49;99898.69;1716646;82;21162;-76
2022/10/31 08:25:30;;;;;;;2.77;1.45;;;;;;;7.75;49.49;99917.11;1710878;82;21543;-76
2022/10/31 08:27:58;;;;;;;1.32;1.22;;;;;;;7.80;48.09;99913.23;1711531;82;21057;-73
2022/10/31 08:30:28;;;;;;;1.67;1.00;;;;;;;7.81;48.10;99902.00;1711203;83;21050;-75
2022/10/31 08:33:05;;;;;;;1.47;0.80;;;;;;;7.83;48.31;99890.01;1667578;82;21046;-75
2022/10/31 08:35:43;;;;;;;1.70;0.90;;;;;;;7.88;48.42;99900.86;1672613;85;21825;-74
2022/10/31 08:38:24;;;;;;;0.80;0.80;;;;;;;7.92;48.46;99895.03;1677761;82;20980;-78
2022/10/31 08:40:51;;;;;;;2.55;0.90;;;;;;;7.96;47.88;99914.44;1706637;82;21513;-75
2022/10/31 08:43:18;;;;;;;0.80;0.80;;;;;;;7.98;47.64;99867.35;1686521;82;21091;-73
2022/10/31 08:45:47;;;;;;;1.42;1.00;;;;;;;7.99;47.49;99894.44;1699011;84;21030;-73
2022/10/31 08:48:16;;;;;;;2.35;1.20;;;;;;;8.02;47.25;99923.43;1675882;84;22121;-74
2022/10/31 08:50:44;;;;;;;0.70;0.70;;;;;;;8.05;47.06;99940.41;1699205;82;21574;-76
2022/10/31 08:53:17;;;;;;;0.93;0.80;;;;;;;8.06;47.00;99926.77;1692024;84;20993;-75
2022/10/31 08:55:46;;;;;;;2.02;0.90;;;;;;;8.07;47.20;99897.59;1681001;84;21640;-75
2022/10/31 08:58:21;;;;;;;1.15;1.00;;;;;;;8.11;47.52;99938.95;1703989;82;21031;-75
2022/10/31 09:00:52;;;;;;;3.20;0.90;;;;;;;8.17;47.79;99915.80;1702834;82;21007;-75
2022/10/31 09:03:28;;;;;;;1.60;1.35;;;;;;;8.22;47.67;99881.92;1702758;82;21591;-75
2022/10/31 09:06:00;;;;;;;1.07;0.98;;;;;;;8.29;47.42;99888.53;1721287;82;21045;-77
2022/10/31 09:08:30;;;;;;;0.93;0.93;;;;;;;8.31;47.49;99902.52;1705167;82;21575;-77
2022/10/31 09:10:58;;;;;;;1.17;1.07;;;;;;;8.33;46.78;99923.75;1700090;82;21137;-75
2022/10/31 09:13:29;;;;;;;1.42;0.95;;;;;;;8.37;45.48;99905.64;1704768;82;21143;-78
2022/10/31 09:15:58;;;;;;;2.10;1.00;;;;;;;8.41;46.02;99884.02;1702146;84;21258;-76
2022/10/31 09:18:27;;;;;;;0.98;0.88;;;;;;;8.46;45.95;99890.85;1704227;83;21003;-77
2022/10/31 09:21:00;;;;;;;1.10;1.00;;;;;;;8.54;45.35;99919.98;1727443;82;21005;-75
2022/10/31 09:23:27;;;;;;;1.10;1.00;;;;;;;8.55;45.03;99903.38;1670971;85;21033;-76
2022/10/31 09:25:55;;;;;;;1.85;0.90;;;;;;;8.56;45.29;99935.33;1678986;83;21271;-76
2022/10/31 09:28:31;;;;;;;1.85;1.10;;;;;;;8.61;45.43;99897.10;1714399;82;21517;-78
2022/10/31 09:31:00;;;;;;;0.93;0.93;;;;;;;8.66;45.37;99922.70;1733792;82;20992;-75
2022/10/31 09:33:29;;;;;;;3.12;0.90;;;;;;;8.68;44.85;99912.57;1703048;82;21038;-76
2022/10/31 09:35:58;;;;;;;1.42;0.90;;;;;;;8.71;44.89;99958.50;1729859;82;21501;-75
2022/10/31 09:38:25;;;;;;;1.25;1.00;;;;;;;8.70;44.52;99917.98;1722591;82;21167;-75
2022/10/31 09:41:07;;;;;;;0.80;0.80;;;;;;;8.72;44.62;99912.39;1728567;82;20940;-73
2022/10/31 09:44:03;;;;;;;1.87;1.07;;;;;;;8.74;44.28;99912.96;1703448;84;21582;-72
2022/10/31 09:46:36;;;;;;;4.10;1.40;;;;;;;8.82;44.46;99926.57;1706932;82;21099;-74
2022/10/31 09:49:43;;;;;;;2.02;1.10;;;;;;;8.89;43.47;99883.00;1683710;82;21044;-80
2022/10/31 09:52:31;;;;;;;1.00;0.80;;;;;;;8.92;43.20;99928.15;1671398;85;21318;-86
2022/10/31 09:55:16;;;;;;;1.50;0.95;;;;;;;8.92;43.14;99930.28;1653941;85;21081;-73
2022/10/31 09:57:45;;;;;;;0.82;0.82;;;;;;;8.96;43.28;99899.28;1688265;84;20980;-75
2022/10/31 10:00:20;;;;;;;0.88;0.88;;;;;;;9.01;42.60;99899.92;1695319;84;21694;-73
2022/10/31 10:03:26;;;;;;;3.85;1.12;;;;;;;9.04;42.63;99944.52;1694942;84;21082;-72
2022/10/31 10:06:20;;;;;;;1.02;1.00;;;;;;;9.04;42.69;99914.19;1668948;86;22014;-71
2022/10/31 10:08:52;;;;;;;1.00;1.00;;;;;;;9.04;42.51;99896.75;1604984;83;21043;-74
2022/10/31 10:11:53;;;;;;;1.07;1.02;;;;;;;9.06;41.95;99892.80;1692164;84;21497;-80
2022/10/31 10:14:47;;;;;;;1.65;1.55;;;;;;;9.10;42.41;99893.96;1689451;84;21030;-72
2022/10/31 10:17:39;;;;;;;1.27;1.17;;;;;;;9.17;42.22;99939.44;1674658;84;21011;-82
2022/10/31 10:20:37;;;;;;;1.40;1.27;;;;;;;9.22;42.08;99919.42;1680092;85;21515;-71
2022/10/31 10:23:33;;;;;;;8.75;1.70;;;;;;;9.28;41.58;99882.78;1680170;85;21080;-75
2022/10/31 10:26:05;;;;;;;1.90;1.25;;;;;;;9.33;40.98;99894.97;1695255;83;21050;-79
2022/10/31 10:28:38;;;;;;;2.35;0.93;;;;;;;9.35;40.88;99913.80;1648919;85;21031;-80
2022/10/31 10:31:14;;;;;;;2.05;1.00;;;;;;;9.41;41.15;99907.48;1678968;85;21021;-80
2022/10/31 10:34:13;;;;;;;2.60;1.20;;;;;;;9.50;40.71;99958.94;1677688;85;21127;-76
2022/10/31 10:36:58;;;;;;;2.67;1.07;;;;;;;9.55;40.30;99895.95;1653593;85;21103;-69
2022/10/31 10:39:45;;;;;;;0.90;0.90;;;;;;;9.60;40.40;99934.47;1663429;85;21008;-74
2022/10/31 10:48:13;;;;;;;1.77;1.10;;;;;;;9.79;39.47;99930.27;1695229;84;21300;-74
2022/10/31 10:50:48;;;;;;;1.60;1.50;;;;;;;9.79;39.14;99932.95;1677602;84;21033;-74
2022/10/31 10:54:00;;;;;;;1.40;0.90;;;;;;;9.79;39.58;99897.50;1695293;83;20904;-74
2022/10/31 10:56:21;;;;;;;1.45;1.02;;;;;;;9.89;39.55;99959.49;1697087;84;20982;-73
2022/10/31 10:58:48;;;;;;;0.90;0.90;;;;;;;9.97;39.22;99924.20;1679420;84;21243;-75
2022/10/31 11:01:15;;;;;;;4.20;1.05;;;;;;;10.02;38.88;99916.21;1680974;85;21183;-68
2022/10/31 11:03:42;;;;;;;1.60;0.90;;;;;;;10.06;38.52;99927.31;1680772;85;21715;-73
2022/10/31 11:06:24;;;;;;;4.92;1.60;;;;;;;10.13;38.54;99941.41;1702471;84;21512;-73
2022/10/31 11:08:49;;;;;;;2.35;0.80;;;;;;;10.19;38.37;99929.73;1702820;83;21040;-72
2022/10/31 11:11:31;;;;;;;1.70;1.10;;;;;;;10.22;37.77;99927.89;1702738;84;21053;-71
2022/10/31 11:14:03;;;;;;;1.35;1.00;;;;;;;10.20;37.74;99930.55;1702536;84;21103;-74
2022/10/31 11:16:36;;;;;;;;;;;;;;;10.16;37.52;99919.48;1704049;84;21555;-74
2022/10/31 11:19:17;;;;;;;1.50;0.90;;;;;;;10.22;37.79;99920.36;1727366;83;20089;-73
2022/10/31 11:21:46;;;;;;;0.93;0.93;;;;;;;10.25;37.37;99928.77;1723419;82;21060;-73
2022/10/31 11:24:19;;;;;;;4.28;1.42;;;;;;;10.30;37.59;99915.95;1727585;83;20940;-73
2022/10/31 11:26:48;;;;;;;1.80;1.70;;;;;;;10.30;36.77;99971.88;1727436;83;21229;-73
2022/10/31 11:29:24;;;;;;;1.22;1.10;;;;;;;10.26;37.09;99903.53;1727096;83;20932;-73
2022/10/31 11:31:55;;;;;;;1.15;1.00;;;;;;;10.28;37.48;99917.53;1726529;82;21671;-74
2022/10/31 11:34:31;;;;;;;2.33;1.02;;;;;;;10.36;37.27;99900.98;1727469;83;21063;-78
2022/10/31 11:37:06;;;;;;;3.25;2.10;;;;;;;10.48;37.40;99915.72;1727445;83;20987;-74
2022/10/31 11:39:33;;;;;;;2.35;1.10;;;;;;;10.60;37.67;99919.69;1726650;81;21130;-78
2022/10/31 11:42:00;;;;;;;1.20;1.10;;;;;;;10.71;36.80;99926.84;1682662;83;20992;-71
2022/10/31 11:44:29;;;;;;;2.77;1.85;;;;;;;10.61;36.67;99918.61;1727536;83;20968;-76
2022/10/31 11:46:58;;;;;;;1.65;1.15;;;;;;;10.50;36.75;99909.02;1718653;82;20996;-85
2022/10/31 11:49:30;;;;;;;1.47;1.00;;;;;;;10.48;37.18;99950.67;1708222;84;21046;-83
2022/10/31 11:51:58;;;;;;;5.95;1.22;;;;;;;10.53;36.38;99948.61;1708092;84;21130;-79
2022/10/31 11:54:31;;;;;;;1.27;1.02;;;;;;;10.57;36.53;99932.27;1707857;82;21076;-81
2022/10/31 11:56:58;;;;;;;2.02;1.15;;;;;;;10.63;36.49;99954.16;1706577;84;21017;-76
2022/10/31 11:59:31;;;;;;;1.10;1.00;;;;;;;10.70;36.24;99942.69;1698825;84;20978;-76
2022/10/31 12:02:00;;;;;;;2.85;1.40;;;;;;;10.75;36.38;99955.70;1693498;83;21070;-76
2022/10/31 12:04:35;;;;;;;0.93;0.93;;;;;;;10.78;35.87;99961.14;1659685;85;21129;-73
2022/10/31 12:07:01;;;;;;;2.70;1.07;;;;;;;10.76;35.85;99953.30;1696444;84;21117;-72
2022/10/31 12:09:30;;;;;;;1.15;1.05;;;;;;;10.75;36.26;99933.36;1696270;84;20971;-76
2022/10/31 12:12:36;;;;;;;1.15;0.90;;;;;;;10.74;36.11;99950.59;1696471;84;21547;-70
2022/10/31 12:15:20;;;;;;;0.95;0.95;;;;;;;10.74;35.72;99958.09;1636635;86;21138;-79